»·PEaware :: UAL1399 KSUN-KIDA

UAL1399 :: KSUN-KIDA

FLIGHT INFORMATION

Flight Status: Arrived
Operator:
United Airlines
More flights by this operator :: More flights under this callsign
Pilot: David C. (16084)
Aircraft: SAAB 340
(SF34)
More flights by this aircraft type
Origin: KSUN Friedman Meml
United States
Destination: KIDA Idaho Falls Regl
United States
More flights between these airports :: More routes between these airports
Route: AUREL3 REAPS V500 PIH V21 IDA
File this flight plan on PilotEdge
Remarks:
Altitude:
(Current/Filed)
11,000ft
Speed:
(Current/Filed)
281kts
Departed: 07-Aug-18 09:06 AM
Arrived: 07-Aug-18 09:37 AM
Distance/Time
Traveled:
97nm/0:31
Distance/Time
To Go:
Arrived

Flight Plot

Page will automatically refresh every two minutes.

Flight plan parsing failed; only flown route is shown


Map Options




Map Legend


Flown Route
Filed Route
Departure Airport
Arrival Airport
Navaid (VOR, NDB)
Fix

Horizontal Profiles

Position Reports

Time Latitude Longitude Heading Altitude Ground
Speed
07-Aug-18 08:43 43.507260 -114.301247 52 5324ft 0kts
07-Aug-18 08:44 43.507260 -114.301247 52 5324ft 0kts
07-Aug-18 08:45 43.507260 -114.301247 52 5324ft 0kts
07-Aug-18 08:46 43.507260 -114.301247 52 5324ft 0kts
07-Aug-18 08:47 43.507260 -114.301247 52 5324ft 0kts
07-Aug-18 08:48 43.507260 -114.301247 52 5324ft 0kts
07-Aug-18 08:49 43.507260 -114.301247 52 5324ft 0kts
07-Aug-18 08:50 43.507260 -114.301247 52 5324ft 0kts
07-Aug-18 08:51 43.507260 -114.301247 52 5324ft 0kts
07-Aug-18 08:52 43.507260 -114.301247 52 5324ft 0kts
07-Aug-18 08:53 43.507260 -114.301247 52 5324ft 0kts
07-Aug-18 08:54 43.507260 -114.301247 52 5324ft 0kts
07-Aug-18 08:55 43.507260 -114.301247 52 5324ft 0kts
07-Aug-18 08:56 43.507260 -114.301247 52 5324ft 0kts
07-Aug-18 08:57 43.507260 -114.301247 52 5324ft 0kts
07-Aug-18 08:58 43.507260 -114.301247 52 5324ft 0kts
07-Aug-18 08:59 43.508393 -114.301509 325 5324ft 12kts
07-Aug-18 09:00 43.511423 -114.304373 348 5324ft 4kts
07-Aug-18 09:01 43.511444 -114.304377 353 5324ft 0kts
07-Aug-18 09:02 43.511444 -114.304377 353 5324ft 0kts
07-Aug-18 09:03 43.511444 -114.304377 353 5324ft 0kts
07-Aug-18 09:04 43.511444 -114.304377 353 5324ft 0kts
07-Aug-18 09:05 43.511445 -114.304377 353 5324ft 0kts
07-Aug-18 09:06 43.511759 -114.303244 147 5324ft 10kts
07-Aug-18 09:07 43.483247 -114.275517 146 6182ft 191kts
07-Aug-18 09:08 43.430810 -114.254524 167 7964ft 201kts
07-Aug-18 09:09 43.376035 -114.235348 167 9655ft 205kts
07-Aug-18 09:10 43.322066 -114.213377 153 11017ft 220kts
07-Aug-18 09:11 43.262692 -114.168428 151 11004ft 260kts
07-Aug-18 09:12 43.197776 -114.118995 151 10999ft 271kts
07-Aug-18 09:13 43.153416 -114.040809 106 10988ft 276kts
07-Aug-18 09:14 43.133037 -113.939075 105 10965ft 277kts
07-Aug-18 09:15 43.112952 -113.837239 105 10955ft 277kts
07-Aug-18 09:16 43.092794 -113.735706 105 10943ft 277kts
07-Aug-18 09:17 43.072413 -113.633784 105 10926ft 277kts
07-Aug-18 09:18 43.052065 -113.532560 105 10917ft 276kts
07-Aug-18 09:19 43.031603 -113.431357 105 10916ft 276kts
07-Aug-18 09:20 43.011075 -113.330350 106 10915ft 276kts
07-Aug-18 09:21 43.033818 -113.238014 52 10916ft 277kts
07-Aug-18 09:22 43.079780 -113.154041 52 10937ft 275kts
07-Aug-18 09:23 43.125314 -113.070231 52 10949ft 275kts
07-Aug-18 09:24 43.170894 -112.986046 52 10953ft 275kts
07-Aug-18 09:25 43.216397 -112.901757 52 10953ft 275kts
07-Aug-18 09:26 43.254268 -112.831421 52 10953ft 275kts
07-Aug-18 09:27 43.299511 -112.747166 52 10974ft 274kts
07-Aug-18 09:28 43.344698 -112.650024 65 10381ft 234kts
07-Aug-18 09:29 43.368262 -112.571841 66 9652ft 216kts
07-Aug-18 09:30 43.390947 -112.496087 66 8994ft 213kts
07-Aug-18 09:31 43.398849 -112.430905 94 8442ft 211kts
07-Aug-18 09:32 43.392742 -112.352678 95 7807ft 204kts
07-Aug-18 09:33 43.388294 -112.281123 87 7234ft 181kts
07-Aug-18 09:34 43.403052 -112.207971 60 6565ft 171kts
07-Aug-18 09:35 43.427686 -112.165840 39 6490ft 168kts
07-Aug-18 09:36 43.459495 -112.131396 37 5836ft 136kts
07-Aug-18 09:37 43.489953 -112.098719 37 5098ft 140kts
07-Aug-18 09:38 43.512937 -112.073989 42 4743ft 25kts
07-Aug-18 09:39 43.513624 -112.071800 127 4743ft 3kts
07-Aug-18 09:40 43.515790 -112.068916 63 4743ft 9kts
07-Aug-18 09:41 43.515248 -112.068555 197 4743ft 0kts
07-Aug-18 09:42 43.515248 -112.068555 197 4743ft 0kts

Navigation Log

Ident Type
Flight plan parsing failed, navigation log unavailable